Time;durP1;ratioP1;P1;durP2;ratioP2;P2;SDS_P1;SDS_P2;PMS_P1;PMS_P2;Temp;Humidity;BMP_temperature;BMP_pressure;BME280_temperature;BME280_humidity;BME280_pressure;Samples;Min_cycle;Max_cycle;Signal;HPM_P1;HPM_P2
2023/08/04 00:00:55;;;;;;;4.05;1.70;;;18.40;99.90;;;;;;4989291;28;20058;-70
2023/08/04 00:03:40;;;;;;;2.10;1.40;;;18.40;99.90;;;;;;4990260;28;20042;-70
2023/08/04 00:06:26;;;;;;;3.08;1.52;;;18.40;99.90;;;;;;4990188;28;20050;-70
2023/08/04 00:09:13;;;;;;;2.13;1.45;;;18.40;99.90;;;;;;4989524;28;20057;-70
2023/08/04 00:11:59;;;;;;;1.75;1.23;;;18.40;99.90;;;;;;4982307;28;20511;-71
2023/08/04 00:14:48;;;;;;;2.20;1.40;;;18.40;99.90;;;;;;4989026;28;20376;-71
2023/08/04 00:17:37;;;;;;;2.70;1.50;;;18.40;99.90;;;;;;4989647;28;20058;-71
2023/08/04 00:20:23;;;;;;;3.38;1.40;;;18.40;99.90;;;;;;4987896;28;20050;-71
2023/08/04 00:23:08;;;;;;;4.95;1.73;;;18.40;99.90;;;;;;4994207;28;20042;-71
2023/08/04 00:25:54;;;;;;;1.85;1.40;;;18.50;99.90;;;;;;4996545;28;20045;-71
2023/08/04 00:28:40;;;;;;;1.85;1.38;;;18.40;99.90;;;;;;4992068;28;20034;-71
2023/08/04 00:31:26;;;;;;;7.07;1.83;;;18.40;99.90;;;;;;4988611;28;20434;-73
2023/08/04 00:34:12;;;;;;;1.70;1.30;;;18.40;99.90;;;;;;4989609;28;20575;-73
2023/08/04 00:36:58;;;;;;;3.92;1.30;;;18.40;99.90;;;;;;4987451;28;20077;-74
2023/08/04 00:39:44;;;;;;;2.38;1.45;;;18.40;99.90;;;;;;4987352;28;20062;-74
2023/08/04 00:42:30;;;;;;;2.30;1.35;;;18.40;99.90;;;;;;4983384;28;20104;-72
2023/08/04 00:45:16;;;;;;;3.15;1.50;;;18.50;99.90;;;;;;4979724;28;20050;-72
2023/08/04 00:48:02;;;;;;;2.50;1.30;;;18.50;99.90;;;;;;4990782;28;20050;-72
2023/08/04 00:50:48;;;;;;;2.10;1.50;;;18.50;99.90;;;;;;4990484;28;20053;-72
2023/08/04 00:53:35;;;;;;;1.75;1.23;;;18.50;99.90;;;;;;4991059;28;20076;-72
2023/08/04 00:56:21;;;;;;;1.30;1.20;;;18.50;99.90;;;;;;4989171;28;20076;-72
2023/08/04 00:59:07;;;;;;;2.20;1.50;;;18.50;99.90;;;;;;4988221;28;20496;-72
2023/08/04 01:01:53;;;;;;;3.15;1.83;;;18.60;99.90;;;;;;4988572;28;20065;-72
2023/08/04 01:04:39;;;;;;;3.63;1.67;;;18.60;99.90;;;;;;4989221;28;20038;-72
2023/08/04 01:07:27;;;;;;;2.67;1.50;;;18.70;99.90;;;;;;4988739;28;20046;-71
2023/08/04 01:10:24;;;;;;;3.08;1.80;;;18.70;99.90;;;;;;4988504;28;20096;-71
2023/08/04 01:13:18;;;;;;;2.55;1.48;;;18.80;99.90;;;;;;4989502;28;20053;-72
2023/08/04 01:16:06;;;;;;;4.90;1.90;;;18.80;99.90;;;;;;4979846;28;20054;-72
2023/08/04 01:18:57;;;;;;;3.13;1.63;;;18.90;99.90;;;;;;4986702;28;20132;-71
2023/08/04 01:21:43;;;;;;;3.95;1.80;;;18.90;99.90;;;;;;4979686;28;20050;-73
2023/08/04 01:24:29;;;;;;;2.28;1.67;;;18.90;99.90;;;;;;4983060;28;20046;-75
2023/08/04 01:27:21;;;;;;;4.00;1.95;;;18.90;99.90;;;;;;4990845;28;20042;-73
2023/08/04 01:30:13;;;;;;;3.72;2.33;;;19.00;99.90;;;;;;4986543;28;20406;-73
2023/08/04 01:32:59;;;;;;;2.78;1.88;;;19.00;99.90;;;;;;4982572;28;20049;-73
2023/08/04 01:35:45;;;;;;;4.20;1.95;;;19.00;99.90;;;;;;4983837;28;20057;-73
2023/08/04 01:38:31;;;;;;;3.40;2.10;;;19.10;99.90;;;;;;4989533;28;20080;-73
2023/08/04 01:41:17;;;;;;;3.33;1.75;;;19.10;99.90;;;;;;4987221;28;20050;-77
2023/08/04 01:44:03;;;;;;;4.22;1.90;;;19.10;99.90;;;;;;4989530;28;20096;-75
2023/08/04 01:46:49;;;;;;;2.90;1.90;;;19.10;99.90;;;;;;4988723;28;20130;-75
2023/08/04 01:49:35;;;;;;;1.95;1.45;;;19.10;99.90;;;;;;4985166;28;20046;-76
2023/08/04 01:52:22;;;;;;;8.38;2.00;;;19.20;99.90;;;;;;4971065;28;20093;-76
2023/08/04 01:55:08;;;;;;;3.33;1.92;;;19.20;99.90;;;;;;4980467;28;20176;-75
2023/08/04 01:57:54;;;;;;;2.88;1.70;;;19.20;99.90;;;;;;4986758;28;20104;-75
2023/08/04 02:00:40;;;;;;;5.18;2.22;;;19.20;99.90;;;;;;4987914;28;20399;-75
2023/08/04 02:03:26;;;;;;;3.00;2.05;;;19.30;99.90;;;;;;4985127;28;20042;-75
2023/08/04 02:06:12;;;;;;;4.15;2.10;;;19.30;99.90;;;;;;4986137;28;20096;-75
2023/08/04 02:08:58;;;;;;;2.75;1.92;;;19.30;99.90;;;;;;4991124;28;20050;-75
2023/08/04 02:11:44;;;;;;;3.70;1.88;;;19.30;99.90;;;;;;4978133;28;20049;-76
2023/08/04 02:14:30;;;;;;;3.15;1.67;;;19.30;99.90;;;;;;4992401;28;20050;-75
2023/08/04 02:17:17;;;;;;;3.95;1.80;;;19.30;99.90;;;;;;4993886;28;20073;-75
2023/08/04 02:20:05;;;;;;;3.55;2.30;;;19.40;99.90;;;;;;4981420;28;20148;-76
2023/08/04 02:22:50;;;;;;;3.42;2.00;;;19.30;99.90;;;;;;4984824;28;20156;-75
2023/08/04 02:25:36;;;;;;;2.85;1.98;;;19.30;99.90;;;;;;4989379;28;20542;-79
2023/08/04 02:28:22;;;;;;;5.32;2.50;;;19.40;99.90;;;;;;4991998;28;20097;-80
2023/08/04 02:31:08;;;;;;;4.85;2.08;;;19.40;99.90;;;;;;4991492;28;20100;-80
2023/08/04 02:33:54;;;;;;;8.52;3.13;;;19.40;99.90;;;;;;4992211;28;20074;-80
2023/08/04 02:36:40;;;;;;;4.65;2.15;;;19.40;99.90;;;;;;4988525;28;20406;-80
2023/08/04 02:39:26;;;;;;;3.00;2.20;;;19.40;99.90;;;;;;4989224;28;20054;-80
2023/08/04 02:42:12;;;;;;;2.67;1.85;;;19.40;99.90;;;;;;4992237;28;20074;-79
2023/08/04 02:44:58;;;;;;;6.55;2.88;;;19.30;99.90;;;;;;4988780;28;20044;-74
2023/08/04 02:47:44;;;;;;;4.03;2.38;;;19.40;99.90;;;;;;4992625;28;20639;-74
2023/08/04 02:50:30;;;;;;;3.15;2.40;;;19.40;99.90;;;;;;4984981;28;20046;-74
2023/08/04 02:53:16;;;;;;;5.45;1.90;;;19.30;99.90;;;;;;4988565;28;20049;-74
2023/08/04 02:56:13;;;;;;;10.27;2.30;;;19.40;99.90;;;;;;4988920;28;20121;-75
2023/08/04 02:59:02;;;;;;;4.22;2.35;;;19.40;99.90;;;;;;4988961;28;20042;-74
2023/08/04 03:01:48;;;;;;;4.57;2.40;;;19.40;99.90;;;;;;4993150;28;20038;-74
2023/08/04 03:04:34;;;;;;;5.45;2.33;;;19.40;99.90;;;;;;4993887;28;20043;-74
2023/08/04 03:07:20;;;;;;;4.43;1.90;;;19.40;99.90;;;;;;4984618;28;20038;-73
2023/08/04 03:10:06;;;;;;;5.90;2.63;;;19.30;99.90;;;;;;4988334;28;20038;-74
2023/08/04 03:12:52;;;;;;;7.18;3.05;;;19.30;99.90;;;;;;4992041;28;20050;-74
2023/08/04 03:15:38;;;;;;;4.40;2.20;;;19.30;99.90;;;;;;4991341;28;20162;-74
2023/08/04 03:18:24;;;;;;;4.05;2.28;;;19.30;99.90;;;;;;4990295;28;20047;-74
2023/08/04 03:21:10;;;;;;;4.97;2.80;;;19.30;99.90;;;;;;4990888;28;20050;-74
2023/08/04 03:23:56;;;;;;;8.23;2.95;;;19.30;99.90;;;;;;4987122;28;20098;-73
2023/08/04 03:26:42;;;;;;;7.25;2.67;;;19.30;99.90;;;;;;4988805;28;20082;-74
2023/08/04 03:29:28;;;;;;;7.43;2.90;;;19.30;99.90;;;;;;4991163;28;20038;-72
2023/08/04 03:32:13;;;;;;;6.65;3.08;;;19.30;99.90;;;;;;4991585;28;20105;-73
2023/08/04 03:34:59;;;;;;;9.00;3.10;;;19.30;99.90;;;;;;4989962;28;20545;-73
2023/08/04 03:37:45;;;;;;;3.83;2.20;;;19.20;99.90;;;;;;4989735;28;20457;-77
2023/08/04 03:40:31;;;;;;;4.85;2.47;;;19.20;99.90;;;;;;4974435;28;20046;-78
2023/08/04 03:43:17;;;;;;;6.65;3.00;;;19.20;99.90;;;;;;4997859;28;20042;-75
2023/08/04 03:46:03;;;;;;;10.05;3.20;;;19.10;99.90;;;;;;4974010;28;20053;-77
2023/08/04 03:48:49;;;;;;;5.93;2.72;;;19.10;99.90;;;;;;4989665;28;20046;-76
2023/08/04 03:51:35;;;;;;;8.15;3.03;;;19.10;99.90;;;;;;4989609;28;20105;-78
2023/08/04 03:54:21;;;;;;;5.88;3.17;;;19.00;99.90;;;;;;4987801;28;20046;-77
2023/08/04 03:57:07;;;;;;;5.32;3.03;;;19.00;99.90;;;;;;4990093;28;20042;-76
2023/08/04 03:59:53;;;;;;;4.80;2.63;;;19.00;99.90;;;;;;4981112;28;20062;-76
2023/08/04 04:02:39;;;;;;;8.70;2.97;;;19.00;99.90;;;;;;4990757;28;20483;-77
2023/08/04 04:05:25;;;;;;;8.90;3.20;;;19.00;99.90;;;;;;4982371;28;20042;-72
2023/08/04 04:08:11;;;;;;;2.95;2.40;;;19.00;99.90;;;;;;4987859;28;20518;-74
2023/08/04 04:10:57;;;;;;;8.07;3.17;;;18.90;99.90;;;;;;4987281;28;20096;-71
2023/08/04 04:13:44;;;;;;;5.93;2.72;;;18.90;99.90;;;;;;4991628;28;20078;-73
2023/08/04 04:16:30;;;;;;;6.95;2.88;;;18.90;99.90;;;;;;4989775;28;20073;-72
2023/08/04 04:19:16;;;;;;;4.80;2.78;;;18.80;99.90;;;;;;4986476;28;20084;-72
2023/08/04 04:22:02;;;;;;;7.25;3.13;;;18.80;99.90;;;;;;4973003;28;20496;-71
2023/08/04 04:24:48;;;;;;;5.07;2.90;;;18.80;99.90;;;;;;4979934;28;20042;-73
2023/08/04 04:27:34;;;;;;;7.80;3.15;;;18.80;99.90;;;;;;4986879;28;20092;-73
2023/08/04 04:30:20;;;;;;;5.43;2.65;;;18.70;99.90;;;;;;4989671;28;20038;-73
2023/08/04 04:33:06;;;;;;;7.25;3.22;;;18.80;99.90;;;;;;4991361;28;20121;-73
2023/08/04 04:35:51;;;;;;;4.43;3.00;;;18.80;99.90;;;;;;4988850;28;20129;-72
2023/08/04 04:38:37;;;;;;;7.18;3.10;;;18.80;99.90;;;;;;4987918;28;20484;-67
2023/08/04 04:41:24;;;;;;;10.20;3.03;;;18.80;99.90;;;;;;4991041;28;20082;-78
2023/08/04 04:44:09;;;;;;;12.50;2.90;;;18.90;99.90;;;;;;4978746;28;20475;-69
2023/08/04 04:46:55;;;;;;;11.50;3.55;;;18.90;99.90;;;;;;4991117;28;20531;-76
2023/08/04 04:49:41;;;;;;;5.88;3.60;;;18.90;99.90;;;;;;4987054;28;20406;-77
2023/08/04 04:52:33;;;;;;;6.28;2.58;;;18.90;99.90;;;;;;4984571;28;20049;-79
2023/08/04 04:55:19;;;;;;;5.68;3.15;;;18.90;99.90;;;;;;4990981;28;20044;-79
2023/08/04 04:58:05;;;;;;;6.03;3.05;;;18.90;99.90;;;;;;4987349;28;20046;-79
2023/08/04 05:00:51;;;;;;;7.43;3.20;;;18.90;99.90;;;;;;4980814;28;20133;-77
2023/08/04 05:03:37;;;;;;;6.78;3.03;;;19.00;99.90;;;;;;4988928;28;20406;-78
2023/08/04 05:06:23;;;;;;;7.30;3.05;;;19.00;99.90;;;;;;4984085;28;20121;-78
2023/08/04 05:09:09;;;;;;;4.80;2.78;;;19.00;99.90;;;;;;4983303;28;20081;-78
2023/08/04 05:11:55;;;;;;;5.80;3.38;;;19.10;99.90;;;;;;4983953;28;20057;-78
2023/08/04 05:14:41;;;;;;;5.10;2.90;;;19.10;99.90;;;;;;4973832;28;20073;-79
2023/08/04 05:17:26;;;;;;;6.63;2.70;;;19.20;99.90;;;;;;4988885;28;20039;-78
2023/08/04 05:20:13;;;;;;;6.88;2.63;;;19.20;99.90;;;;;;4986783;28;20050;-78
2023/08/04 05:22:59;;;;;;;5.90;2.97;;;19.20;99.90;;;;;;4988659;28;20046;-78
2023/08/04 05:25:45;;;;;;;8.10;2.85;;;19.20;99.90;;;;;;4988911;28;20503;-79
2023/08/04 05:28:32;;;;;;;4.97;2.50;;;19.20;99.90;;;;;;4990475;28;20039;-78
2023/08/04 05:31:18;;;;;;;4.28;2.30;;;19.30;99.90;;;;;;4986796;28;20074;-78
2023/08/04 05:34:04;;;;;;;7.95;2.95;;;19.30;99.90;;;;;;4975589;28;20049;-79
2023/08/04 05:36:50;;;;;;;5.53;2.80;;;19.30;99.90;;;;;;4995491;28;20044;-77
2023/08/04 05:39:36;;;;;;;8.30;2.55;;;19.30;99.90;;;;;;5006166;28;20046;-76
2023/08/04 05:42:22;;;;;;;7.43;2.67;;;19.30;99.90;;;;;;4979522;28;20503;-78
2023/08/04 05:45:09;;;;;;;5.25;2.20;;;19.30;99.90;;;;;;4991941;28;20046;-76
2023/08/04 05:47:55;;;;;;;5.15;2.92;;;19.30;99.90;;;;;;4991915;28;20507;-77
2023/08/04 05:50:41;;;;;;;8.82;3.20;;;19.40;99.90;;;;;;4991015;28;20046;-76
2023/08/04 05:53:27;;;;;;;6.90;2.72;;;19.40;99.90;;;;;;4989234;28;20046;-76
2023/08/04 05:56:13;;;;;;;7.55;2.90;;;19.50;99.90;;;;;;4991305;28;20396;-76
2023/08/04 05:58:59;;;;;;;5.63;3.17;;;19.50;99.90;;;;;;4993599;28;20562;-76
2023/08/04 06:01:45;;;;;;;6.55;3.28;;;19.60;99.90;;;;;;4984161;28;20506;-78
2023/08/04 06:04:31;;;;;;;4.00;2.33;;;19.70;99.90;;;;;;4983176;28;20602;-77
2023/08/04 06:07:16;;;;;;;4.07;2.17;;;19.80;99.90;;;;;;4993957;28;20410;-75
2023/08/04 06:10:03;;;;;;;7.53;2.67;;;19.90;99.90;;;;;;4990680;28;20399;-76
2023/08/04 06:12:49;;;;;;;6.45;2.85;;;20.00;99.90;;;;;;4992248;28;20046;-73
2023/08/04 06:15:35;;;;;;;6.05;3.15;;;20.00;99.90;;;;;;4989837;28;20046;-72
2023/08/04 06:18:21;;;;;;;4.57;2.30;;;20.00;99.90;;;;;;4988842;28;20038;-75
2023/08/04 06:21:07;;;;;;;7.60;3.42;;;20.10;99.90;;;;;;4977169;28;20141;-71
2023/08/04 06:23:54;;;;;;;4.43;2.40;;;20.10;99.90;;;;;;4978699;28;20042;-70
2023/08/04 06:26:40;;;;;;;3.88;2.75;;;20.10;99.90;;;;;;4986509;28;20050;-72
2023/08/04 06:29:26;;;;;;;6.03;2.55;;;20.20;99.90;;;;;;4986481;28;20495;-71
2023/08/04 06:32:12;;;;;;;4.85;2.97;;;20.20;99.90;;;;;;4990386;28;20469;-71
2023/08/04 06:34:58;;;;;;;4.60;2.83;;;20.20;99.90;;;;;;4991141;28;20403;-71
2023/08/04 06:37:44;;;;;;;5.25;3.78;;;20.20;99.90;;;;;;4981608;28;20915;-70
2023/08/04 06:40:30;;;;;;;4.45;2.55;;;20.20;99.90;;;;;;4990734;28;20496;-74
2023/08/04 06:43:16;;;;;;;5.80;2.83;;;20.20;99.90;;;;;;4991132;28;20523;-71
2023/08/04 06:46:02;;;;;;;10.20;3.70;;;20.20;99.90;;;;;;4967717;28;20038;-71
2023/08/04 06:48:48;;;;;;;6.05;2.70;;;20.30;99.90;;;;;;4999902;28;20042;-70
2023/08/04 06:51:34;;;;;;;7.47;3.22;;;20.30;99.90;;;;;;5002791;28;20078;-70
2023/08/04 06:54:20;;;;;;;6.35;2.65;;;20.40;99.90;;;;;;4998151;28;20054;-70
2023/08/04 06:57:06;;;;;;;10.90;2.70;;;20.50;99.90;;;;;;4976806;28;20466;-71
2023/08/04 06:59:52;;;;;;;6.78;2.80;;;20.60;99.90;;;;;;4997761;28;20141;-70
2023/08/04 07:02:38;;;;;;;7.30;2.88;;;20.60;99.90;;;;;;5001526;28;20045;-70
2023/08/04 07:05:24;;;;;;;7.07;2.85;;;20.60;99.90;;;;;;4985876;28;20057;-71
2023/08/04 07:08:10;;;;;;;4.65;2.67;;;20.70;99.90;;;;;;4991814;28;20113;-70
2023/08/04 07:10:56;;;;;;;10.90;3.35;;;20.70;99.90;;;;;;4989438;28;20076;-71
2023/08/04 07:13:43;;;;;;;5.38;2.50;;;20.70;99.90;;;;;;4982533;28;20038;-71
2023/08/04 07:16:29;;;;;;;4.32;2.20;;;20.70;99.90;;;;;;4979960;28;20128;-71
2023/08/04 07:19:15;;;;;;;7.60;2.58;;;20.70;99.90;;;;;;4987232;28;20038;-72
2023/08/04 07:22:01;;;;;;;5.47;2.50;;;20.70;99.90;;;;;;4990354;28;20042;-71
2023/08/04 07:24:53;;;;;;;6.40;2.45;;;20.70;99.90;;;;;;4990796;28;20042;-71
2023/08/04 07:27:39;;;;;;;7.18;2.55;;;20.60;99.90;;;;;;4990452;28;20042;-71
2023/08/04 07:30:24;;;;;;;7.03;2.45;;;20.60;99.90;;;;;;4986535;28;20085;-71
2023/08/04 07:33:10;;;;;;;6.03;2.67;;;20.60;99.90;;;;;;4987641;28;20403;-71
2023/08/04 07:35:57;;;;;;;4.80;2.80;;;20.70;99.90;;;;;;4986384;28;20038;-71
2023/08/04 07:38:43;;;;;;;4.80;2.58;;;20.80;99.90;;;;;;4988108;28;20552;-71
2023/08/04 07:41:30;;;;;;;5.97;2.42;;;20.80;99.90;;;;;;4989071;28;20142;-71
2023/08/04 07:44:15;;;;;;;5.50;2.45;;;20.80;99.90;;;;;;4988466;28;20137;-71
2023/08/04 07:47:01;;;;;;;6.53;2.50;;;20.80;99.90;;;;;;4990120;28;20038;-71
2023/08/04 07:49:47;;;;;;;5.32;2.50;;;20.80;99.90;;;;;;4979034;28;20046;-71
2023/08/04 07:52:33;;;;;;;5.13;2.53;;;20.80;99.90;;;;;;4988873;28;20038;-73
2023/08/04 07:55:19;;;;;;;3.92;1.85;;;20.80;99.90;;;;;;4988287;28;20065;-70
2023/08/04 07:58:09;;;;;;;6.85;2.10;;;20.90;99.90;;;;;;4990137;28;20048;-71
2023/08/04 08:00:55;;;;;;;7.05;2.28;;;21.00;99.90;;;;;;4989299;28;20050;-71
2023/08/04 08:03:41;;;;;;;4.28;1.85;;;21.10;99.90;;;;;;4976774;28;20415;-72
2023/08/04 08:06:27;;;;;;;3.08;1.92;;;21.10;99.90;;;;;;4981286;28;20054;-71
2023/08/04 08:09:13;;;;;;;5.18;2.20;;;21.20;99.90;;;;;;4987640;28;20038;-71
2023/08/04 08:11:59;;;;;;;4.47;2.03;;;21.30;99.80;;;;;;4984882;28;20509;-71
2023/08/04 08:14:45;;;;;;;4.97;2.20;;;21.40;99.80;;;;;;4989700;28;20047;-71
2023/08/04 08:17:31;;;;;;;4.25;2.53;;;21.40;99.40;;;;;;4992144;28;20113;-71
2023/08/04 08:20:17;;;;;;;8.60;2.25;;;21.50;99.40;;;;;;4986209;28;20332;-72
2023/08/04 08:23:03;;;;;;;6.00;2.22;;;21.50;99.10;;;;;;4989195;28;20034;-72
2023/08/04 08:25:49;;;;;;;8.77;2.17;;;21.60;99.00;;;;;;4988078;28;20046;-71
2023/08/04 08:28:35;;;;;;;3.47;2.03;;;21.60;98.90;;;;;;4979896;28;20097;-73
2023/08/04 08:31:21;;;;;;;3.45;2.10;;;21.70;99.00;;;;;;4978004;28;20038;-72
2023/08/04 08:34:08;;;;;;;6.00;2.45;;;21.70;99.00;;;;;;4971827;28;20038;-73
2023/08/04 08:36:54;;;;;;;5.32;1.83;;;21.80;98.70;;;;;;4980777;28;20074;-73
2023/08/04 08:39:40;;;;;;;2.75;1.75;;;21.80;98.80;;;;;;4975416;28;20050;-74
2023/08/04 08:42:26;;;;;;;3.35;1.83;;;21.80;98.60;;;;;;4972201;28;20381;-71
2023/08/04 08:45:12;;;;;;;4.03;2.10;;;21.90;98.50;;;;;;4978889;28;20035;-72
2023/08/04 08:47:58;;;;;;;3.70;1.50;;;22.10;98.40;;;;;;4988284;28;20133;-71
2023/08/04 08:50:47;;;;;;;3.85;2.08;;;22.30;98.10;;;;;;4986581;28;20053;-73
2023/08/04 08:53:33;;;;;;;4.75;2.00;;;22.40;97.90;;;;;;4977084;28;20061;-74
2023/08/04 08:56:19;;;;;;;4.32;2.08;;;22.50;97.60;;;;;;4990141;28;20125;-73
2023/08/04 08:59:06;;;;;;;5.28;2.50;;;22.40;97.30;;;;;;4989909;28;20480;-72
2023/08/04 09:01:54;;;;;;;6.70;2.28;;;22.40;97.80;;;;;;4971194;28;20047;-72
2023/08/04 09:04:40;;;;;;;3.65;1.77;;;22.40;97.70;;;;;;4973868;28;20125;-72
2023/08/04 09:07:26;;;;;;;11.23;3.28;;;22.50;97.70;;;;;;4990461;28;20049;-73
2023/08/04 09:10:12;;;;;;;9.93;2.80;;;22.60;97.70;;;;;;4980811;28;20042;-72
2023/08/04 09:13:00;;;;;;;5.22;2.17;;;22.60;97.70;;;;;;4971986;28;20069;-74
2023/08/04 09:15:50;;;;;;;4.55;2.25;;;22.70;97.50;;;;;;4987598;28;20128;-72
2023/08/04 09:18:39;;;;;;;5.32;1.88;;;22.70;97.60;;;;;;4990705;28;20333;-72
2023/08/04 09:21:25;;;;;;;6.35;2.17;;;22.80;97.50;;;;;;4989340;28;20046;-72
2023/08/04 09:24:13;;;;;;;4.40;2.15;;;22.80;97.50;;;;;;4987858;28;20050;-72
2023/08/04 09:26:59;;;;;;;6.57;2.00;;;23.00;97.30;;;;;;4984108;28;20046;-72
2023/08/04 09:29:57;;;;;;;7.03;2.40;;;23.10;97.10;;;;;;4989519;28;20047;-73
2023/08/04 09:32:49;;;;;;;7.32;3.45;;;23.20;96.80;;;;;;4989276;28;20038;-72
2023/08/04 09:35:37;;;;;;;7.15;2.38;;;23.30;96.80;;;;;;4988601;28;20046;-71
2023/08/04 09:38:23;;;;;;;3.35;2.05;;;23.30;96.90;;;;;;4991223;28;20050;-72
2023/08/04 09:41:11;;;;;;;3.97;2.15;;;23.30;97.00;;;;;;4988772;28;20418;-71
2023/08/04 09:43:57;;;;;;;4.13;2.17;;;23.40;96.90;;;;;;4990433;28;20053;-73
2023/08/04 09:46:53;;;;;;;3.17;2.00;;;23.40;96.60;;;;;;4972406;28;20455;-72
2023/08/04 09:49:39;;;;;;;6.47;2.55;;;23.40;96.30;;;;;;4988524;28;20415;-72
2023/08/04 09:52:28;;;;;;;3.25;1.88;;;23.40;96.60;;;;;;4971678;28;20126;-72
2023/08/04 09:55:13;;;;;;;3.58;1.90;;;23.40;96.40;;;;;;4965353;28;20046;-73
2023/08/04 09:58:01;;;;;;;6.55;2.50;;;23.40;96.00;;;;;;4988584;28;20046;-73
2023/08/04 10:00:47;;;;;;;4.68;1.90;;;23.40;95.50;;;;;;4986730;28;20054;-73
2023/08/04 10:03:42;;;;;;;3.67;2.10;;;23.40;95.50;;;;;;4987945;28;20041;-72
2023/08/04 10:06:28;;;;;;;4.90;2.20;;;23.40;95.50;;;;;;4988778;28;20055;-72
2023/08/04 10:09:15;;;;;;;4.32;2.50;;;23.50;95.40;;;;;;4988043;28;20100;-74
2023/08/04 10:12:02;;;;;;;4.07;1.70;;;23.40;95.20;;;;;;4987607;28;20042;-73
2023/08/04 10:14:48;;;;;;;4.53;1.80;;;23.40;94.90;;;;;;4987343;28;20046;-72
2023/08/04 10:17:34;;;;;;;3.45;2.17;;;23.40;94.90;;;;;;4990358;28;20042;-72
2023/08/04 10:20:21;;;;;;;6.55;2.15;;;23.30;95.10;;;;;;4989537;28;20058;-72
2023/08/04 10:23:07;;;;;;;4.60;2.17;;;23.30;94.90;;;;;;4988445;28;20070;-73
2023/08/04 10:25:58;;;;;;;6.97;2.38;;;23.20;94.80;;;;;;4985984;28;20068;-73
2023/08/04 10:29:03;;;;;;;5.10;2.30;;;23.10;94.80;;;;;;4988991;28;20038;-73
2023/08/04 10:31:57;;;;;;;2.78;2.13;;;23.10;94.90;;;;;;4978630;28;20101;-72
2023/08/04 10:34:44;;;;;;;3.45;1.85;;;23.00;95.40;;;;;;4989823;28;20053;-71
2023/08/04 10:37:30;;;;;;;5.78;2.33;;;22.90;96.00;;;;;;4984108;28;20042;-71
2023/08/04 10:40:31;;;;;;;4.50;1.80;;;22.80;96.40;;;;;;4987085;28;20085;-71
2023/08/04 10:43:20;;;;;;;5.68;2.33;;;22.70;96.90;;;;;;4990663;28;20442;-72
2023/08/04 10:46:10;;;;;;;3.22;2.30;;;22.70;97.30;;;;;;4991257;28;20116;-69
2023/08/04 10:48:56;;;;;;;5.53;1.80;;;22.70;97.40;;;;;;4991504;28;20113;-70
2023/08/04 10:51:45;;;;;;;3.45;2.22;;;22.80;97.80;;;;;;4976603;28;20060;-71
2023/08/04 10:54:31;;;;;;;3.80;1.83;;;22.80;97.80;;;;;;4989067;28;20030;-71
2023/08/04 10:57:19;;;;;;;3.72;2.10;;;22.70;97.90;;;;;;4992521;28;20038;-69
2023/08/04 11:00:07;;;;;;;4.57;1.90;;;22.80;97.90;;;;;;4977916;28;20051;-70
2023/08/04 11:02:53;;;;;;;4.60;2.03;;;22.80;98.10;;;;;;4993164;28;20050;-74
2023/08/04 11:05:39;;;;;;;4.03;1.38;;;22.90;97.80;;;;;;4979773;28;20062;-72
2023/08/04 11:08:25;;;;;;;4.43;3.00;;;22.90;97.00;;;;;;4991220;28;20385;-69
2023/08/04 11:11:12;;;;;;;5.47;2.60;;;22.80;97.00;;;;;;4989659;28;20092;-69
2023/08/04 11:13:58;;;;;;;3.30;2.28;;;22.80;96.60;;;;;;4989901;28;20035;-69
2023/08/04 11:16:46;;;;;;;5.25;3.00;;;22.80;96.60;;;;;;4992903;28;20456;-69
2023/08/04 11:19:32;;;;;;;8.65;3.40;;;22.80;96.60;;;;;;4989731;28;20050;-69
2023/08/04 11:22:21;;;;;;;5.32;2.50;;;22.90;96.70;;;;;;4989588;28;20046;-69
2023/08/04 11:25:07;;;;;;;6.28;2.45;;;23.00;96.70;;;;;;4989518;28;20121;-69
2023/08/04 11:27:53;;;;;;;4.13;2.17;;;23.10;96.70;;;;;;4992964;28;20042;-69
2023/08/04 11:30:39;;;;;;;3.30;1.95;;;23.10;96.60;;;;;;4989601;28;20046;-69
2023/08/04 11:33:24;;;;;;;5.10;2.70;;;23.20;96.50;;;;;;4986604;28;20042;-69
2023/08/04 11:36:10;;;;;;;3.95;2.03;;;23.30;96.20;;;;;;4991196;28;20130;-69
2023/08/04 11:38:56;;;;;;;3.55;1.60;;;23.30;95.60;;;;;;4989401;28;20042;-69
2023/08/04 11:41:43;;;;;;;4.50;2.13;;;23.30;95.10;;;;;;4990337;28;20057;-68
2023/08/04 11:44:30;;;;;;;2.67;1.80;;;23.40;95.10;;;;;;4989711;28;20157;-70
2023/08/04 11:47:17;;;;;;;5.00;1.65;;;23.50;95.10;;;;;;4991669;28;20415;-70
2023/08/04 11:50:03;;;;;;;2.58;1.30;;;23.50;94.80;;;;;;4973556;28;20050;-69
2023/08/04 11:52:50;;;;;;;2.08;1.40;;;23.60;94.50;;;;;;4988324;28;20444;-70
2023/08/04 11:55:35;;;;;;;2.45;1.60;;;23.70;94.30;;;;;;4980665;28;20050;-79
2023/08/04 11:58:40;;;;;;;4.53;2.00;;;23.70;94.50;;;;;;4991497;28;20042;-74
2023/08/04 12:01:33;;;;;;;2.70;1.63;;;23.80;94.30;;;;;;4989957;28;20089;-73
2023/08/04 12:04:25;;;;;;;3.95;1.83;;;23.90;94.30;;;;;;4986082;28;20046;-72
2023/08/04 12:07:11;;;;;;;3.05;1.85;;;24.00;94.20;;;;;;4991503;28;20050;-73
2023/08/04 12:09:57;;;;;;;4.00;2.00;;;24.10;94.50;;;;;;4990632;28;20041;-71
2023/08/04 12:12:43;;;;;;;2.63;1.48;;;24.30;94.30;;;;;;4991920;28;20046;-73
2023/08/04 12:15:29;;;;;;;1.95;1.58;;;24.30;93.90;;;;;;4980893;28;20043;-72
2023/08/04 12:18:33;;;;;;;5.53;2.90;;;24.40;93.50;;;;;;4989328;28;20053;-71
2023/08/04 12:21:19;;;;;;;6.18;2.90;;;24.50;93.40;;;;;;4982530;28;20054;-74
2023/08/04 12:24:05;;;;;;;4.72;2.33;;;24.60;93.70;;;;;;4987469;28;20494;-74
2023/08/04 12:26:51;;;;;;;3.22;1.80;;;24.60;93.60;;;;;;4970505;28;20423;-75
2023/08/04 12:29:37;;;;;;;4.55;1.63;;;24.70;93.70;;;;;;4987079;28;20444;-75
2023/08/04 12:32:23;;;;;;;5.00;2.10;;;24.70;93.90;;;;;;4990337;28;20051;-75
2023/08/04 12:35:09;;;;;;;4.22;2.10;;;24.90;93.70;;;;;;4991332;28;20031;-74
2023/08/04 12:37:55;;;;;;;3.28;1.70;;;25.00;93.60;;;;;;4988005;28;20104;-74
2023/08/04 12:40:41;;;;;;;3.63;2.00;;;25.10;93.30;;;;;;4986752;28;20093;-72
2023/08/04 12:43:27;;;;;;;4.85;1.80;;;25.20;93.00;;;;;;4990515;28;20450;-72
2023/08/04 12:46:13;;;;;;;4.10;1.90;;;25.30;92.90;;;;;;4989499;28;20142;-72
2023/08/04 12:48:59;;;;;;;2.85;1.77;;;25.40;92.90;;;;;;4989565;28;20853;-72
2023/08/04 12:51:45;;;;;;;2.33;1.50;;;25.50;92.90;;;;;;4984611;28;20044;-73
2023/08/04 12:54:31;;;;;;;4.90;1.85;;;25.50;92.40;;;;;;4974363;28;20438;-72
2023/08/04 12:57:17;;;;;;;5.95;2.20;;;25.50;92.30;;;;;;4988977;28;20116;-72
2023/08/04 13:00:05;;;;;;;7.95;3.42;;;25.50;92.00;;;;;;4987468;28;20460;-72
2023/08/04 13:02:51;;;;;;;6.00;3.00;;;25.40;92.50;;;;;;4974275;28;20038;-73
2023/08/04 13:05:38;;;;;;;4.70;2.17;;;25.40;91.90;;;;;;4987527;28;20475;-72
2023/08/04 13:08:24;;;;;;;5.50;2.67;;;25.30;91.70;;;;;;4988540;28;20238;-73
2023/08/04 13:11:10;;;;;;;5.97;3.00;;;25.20;91.80;;;;;;4989551;28;20161;-72
2023/08/04 13:13:56;;;;;;;5.88;2.20;;;25.10;92.00;;;;;;4989800;28;20086;-72
2023/08/04 13:16:42;;;;;;;1.95;1.50;;;25.00;91.30;;;;;;4991053;28;20050;-73
2023/08/04 13:19:28;;;;;;;3.65;1.88;;;24.70;91.30;;;;;;4988711;28;20039;-73
2023/08/04 13:22:14;;;;;;;4.72;1.95;;;24.70;91.70;;;;;;4991134;28;20046;-72
2023/08/04 13:25:00;;;;;;;4.82;1.92;;;24.70;91.80;;;;;;4972719;28;20137;-72
2023/08/04 13:27:46;;;;;;;3.55;1.63;;;24.80;91.80;;;;;;4990970;28;20050;-71
2023/08/04 13:30:33;;;;;;;4.07;2.08;;;24.80;91.90;;;;;;4988710;28;20080;-71
2023/08/04 13:33:19;;;;;;;3.92;1.83;;;24.70;91.70;;;;;;4994460;28;20046;-71
2023/08/04 13:36:04;;;;;;;3.75;1.63;;;24.70;91.70;;;;;;4990397;28;20209;-72
2023/08/04 13:38:50;;;;;;;4.65;1.98;;;24.70;91.60;;;;;;4988499;28;20130;-73
2023/08/04 13:41:36;;;;;;;3.78;2.00;;;24.50;92.00;;;;;;4987299;28;20047;-72
2023/08/04 13:44:22;;;;;;;4.45;1.70;;;24.30;92.30;;;;;;4988035;28;20054;-72
2023/08/04 13:47:08;;;;;;;2.80;1.80;;;24.20;92.70;;;;;;4988601;28;20050;-71
2023/08/04 13:49:54;;;;;;;5.07;2.38;;;24.10;92.90;;;;;;4988356;28;20078;-72
2023/08/04 13:52:40;;;;;;;3.17;1.50;;;24.10;93.30;;;;;;4987343;28;20080;-73
2023/08/04 13:55:26;;;;;;;4.60;2.20;;;24.20;93.40;;;;;;4971885;28;20133;-73
2023/08/04 13:58:12;;;;;;;3.90;2.05;;;24.20;93.00;;;;;;4989255;28;20038;-72
2023/08/04 14:01:00;;;;;;;6.28;2.17;;;24.20;92.80;;;;;;4986934;28;20451;-73
2023/08/04 14:03:45;;;;;;;4.00;1.70;;;24.30;93.00;;;;;;4989567;28;20042;-72
2023/08/04 14:06:34;;;;;;;5.65;1.98;;;24.40;92.90;;;;;;4991431;28;20046;-70
2023/08/04 14:09:20;;;;;;;3.60;1.70;;;24.40;92.80;;;;;;4992305;28;20046;-72
2023/08/04 14:12:06;;;;;;;2.42;1.70;;;24.50;92.10;;;;;;4993629;28;20046;-71
2023/08/04 14:14:53;;;;;;;2.35;1.58;;;24.50;92.00;;;;;;4988440;28;20135;-71
2023/08/04 14:17:39;;;;;;;8.60;1.73;;;24.50;92.10;;;;;;4991376;28;20089;-72
2023/08/04 14:20:25;;;;;;;4.43;2.38;;;24.60;92.50;;;;;;4987794;28;20061;-71
2023/08/04 14:23:11;;;;;;;4.78;1.55;;;24.70;92.60;;;;;;4971480;28;20078;-72
2023/08/04 14:25:57;;;;;;;4.40;1.95;;;24.90;92.70;;;;;;4992267;28;20046;-72